createdAt,value
2023-04-15T00:00:10.585Z,68.60
2023-04-15T00:00:48.438Z,68.49
2023-04-15T00:01:21.068Z,68.51
2023-04-15T00:01:53.347Z,68.08
2023-04-15T00:02:28.397Z,68.03
2023-04-15T00:03:02.505Z,68.04
2023-04-15T00:03:35.262Z,68.06
2023-04-15T00:04:10.492Z,67.92
2023-04-15T00:04:42.790Z,68.30
2023-04-15T00:05:14.985Z,67.91
2023-04-15T00:05:49.825Z,68.29
2023-04-15T00:06:22.366Z,68.27
2023-04-15T00:06:55.039Z,67.74
2023-04-15T00:07:29.841Z,67.63
2023-04-15T00:08:02.118Z,67.37
2023-04-15T00:08:36.984Z,67.70
2023-04-15T00:09:11.836Z,67.81
2023-04-15T00:09:44.892Z,68.30
2023-04-15T00:10:17.102Z,68.33
2023-04-15T00:10:51.898Z,68.49
2023-04-15T00:11:24.608Z,68.28
2023-04-15T00:11:56.773Z,67.80
2023-04-15T00:12:31.916Z,68.40
2023-04-15T00:13:04.601Z,68.55
2023-04-15T00:13:36.872Z,68.11
2023-04-15T00:14:11.652Z,68.18
2023-04-15T00:14:43.846Z,68.50
2023-04-15T00:15:16.617Z,67.57
2023-04-15T00:15:51.497Z,67.57
2023-04-15T00:16:23.759Z,67.93
2023-04-15T00:16:57.641Z,67.88
2023-04-15T00:17:32.620Z,67.94
2023-04-15T00:18:04.798Z,68.34
2023-04-15T00:18:40.331Z,68.29
2023-04-15T00:19:12.538Z,68.14
2023-04-15T00:19:46.021Z,67.71
2023-04-15T00:20:21.129Z,67.54
2023-04-15T00:20:53.703Z,67.98
2023-04-15T00:21:27.226Z,67.76
2023-04-15T00:22:02.444Z,67.76
2023-04-15T00:22:34.658Z,67.89
2023-04-15T00:23:06.826Z,68.46
2023-04-15T00:23:44.403Z,68.55
2023-04-15T00:24:16.662Z,68.62
2023-04-15T00:24:48.823Z,68.86
2023-04-15T00:25:23.637Z,69.48
2023-04-15T00:25:55.877Z,68.59
2023-04-15T00:26:28.120Z,68.94
2023-04-15T00:27:04.513Z,68.36
2023-04-15T00:27:37.522Z,68.18
2023-04-15T00:28:10.160Z,68.36
2023-04-15T00:28:44.988Z,68.02
2023-04-15T00:29:17.268Z,68.17
2023-04-15T00:29:49.538Z,67.56
2023-04-15T00:30:24.490Z,67.94
2023-04-15T00:30:56.918Z,68.51
2023-04-15T00:31:29.854Z,68.54
2023-04-15T00:32:04.658Z,68.42
2023-04-15T00:32:36.899Z,68.60
2023-04-15T00:33:11.847Z,68.47
2023-04-15T00:33:44.947Z,68.75
2023-04-15T00:34:17.259Z,69.14
2023-04-15T00:34:52.724Z,69.01
2023-04-15T00:35:25.011Z,69.19
2023-04-15T00:35:57.294Z,69.24
2023-04-15T00:36:34.059Z,68.62
2023-04-15T00:37:06.231Z,69.22
2023-04-15T00:37:38.604Z,69.19
2023-04-15T00:38:13.386Z,69.39
2023-04-15T00:38:49.911Z,69.37
2023-04-15T00:39:23.343Z,69.47
2023-04-15T00:39:58.223Z,69.37
2023-04-15T00:40:30.539Z,69.33
2023-04-15T00:41:03.994Z,69.10
2023-04-15T00:41:39.377Z,69.73
2023-04-15T00:42:14.282Z,69.50
2023-04-15T00:42:46.513Z,68.99
2023-04-15T00:43:19.127Z,69.36
2023-04-15T00:43:54.464Z,69.60
2023-04-15T00:44:26.958Z,69.17
2023-04-15T00:44:59.501Z,69.75
2023-04-15T00:45:34.453Z,69.75
2023-04-15T00:46:07.742Z,69.84
2023-04-15T00:46:40.768Z,69.45
2023-04-15T00:47:15.901Z,69.57
2023-04-15T00:47:48.246Z,69.65
2023-04-15T00:48:20.933Z,69.64
2023-04-15T00:48:57.770Z,70.06
2023-04-15T00:49:30.187Z,70.28
2023-04-15T00:50:02.376Z,70.22
2023-04-15T00:50:37.274Z,70.06
2023-04-15T00:51:09.914Z,70.12
2023-04-15T00:51:42.401Z,69.73
2023-04-15T00:52:17.636Z,69.44
2023-04-15T00:52:49.862Z,69.85
2023-04-15T00:53:22.201Z,69.70
2023-04-15T00:54:00.173Z,69.64
2023-04-15T00:54:32.379Z,69.92
2023-04-15T00:55:05.673Z,69.84
2023-04-15T00:55:41.079Z,69.89
2023-04-15T00:56:14.118Z,70.24
2023-04-15T00:56:46.449Z,70.14
2023-04-15T00:57:21.910Z,70.29
2023-04-15T00:57:54.983Z,69.99
2023-04-15T00:58:28.323Z,70.04
2023-04-15T00:59:04.517Z,69.69
2023-04-15T00:59:37.217Z,70.02
2023-04-15T01:00:12.138Z,69.89
2023-04-15T01:00:47.370Z,69.88
2023-04-15T01:01:22.060Z,69.80
2023-04-15T01:01:54.475Z,69.97
2023-04-15T01:02:29.562Z,69.80
2023-04-15T01:03:02.179Z,69.97
2023-04-15T01:03:34.785Z,70.27
2023-04-15T01:04:11.018Z,70.84
2023-04-15T01:04:43.769Z,70.74
2023-04-15T01:05:18.778Z,70.02
2023-04-15T01:05:58.780Z,69.82
2023-04-15T01:06:32.555Z,69.65
2023-04-15T01:07:04.751Z,69.21
2023-04-15T01:07:39.689Z,69.32
2023-04-15T01:08:12.609Z,69.60
2023-04-15T01:08:45.724Z,68.96
2023-04-15T01:09:23.126Z,69.20
2023-04-15T01:09:57.082Z,69.58
2023-04-15T01:10:29.441Z,69.58
2023-04-15T01:11:05.951Z,70.06
2023-04-15T01:11:38.290Z,70.05
2023-04-15T01:12:14.330Z,69.97
2023-04-15T01:12:49.197Z,70.15
2023-04-15T01:13:22.049Z,70.16
2023-04-15T01:13:56.348Z,70.34
2023-04-15T01:14:32.179Z,70.13
2023-04-15T01:15:05.999Z,70.31
2023-04-15T01:15:39.268Z,70.04
2023-04-15T01:16:14.828Z,69.97
2023-04-15T01:16:48.409Z,70.35
2023-04-15T01:17:21.009Z,70.91
2023-04-15T01:17:55.933Z,70.64
2023-04-15T01:18:28.302Z,70.75
2023-04-15T01:19:01.509Z,70.70
2023-04-15T01:19:36.984Z,70.40
2023-04-15T01:20:10.822Z,70.73
2023-04-15T01:20:43.469Z,71.12
2023-04-15T01:21:18.453Z,70.91
2023-04-15T01:21:52.851Z,70.60
2023-04-15T01:22:26.908Z,69.78
2023-04-15T01:23:01.816Z,70.03
2023-04-15T01:23:37.200Z,69.63
2023-04-15T01:24:11.402Z,70.03
2023-04-15T01:24:55.542Z,69.68
2023-04-15T01:25:33.232Z,69.68
2023-04-15T01:26:07.267Z,69.63
2023-04-15T01:26:44.464Z,69.84
2023-04-15T01:27:16.915Z,69.84
2023-04-15T01:27:49.253Z,70.14
2023-04-15T01:28:21.536Z,70.29
2023-04-15T01:28:56.544Z,69.92
2023-04-15T01:29:29.901Z,70.24
2023-04-15T01:30:03.437Z,70.25
2023-04-15T01:30:40.083Z,69.90
2023-04-15T01:31:13.974Z,69.90
2023-04-15T01:31:51.280Z,69.71
2023-04-15T01:32:26.377Z,69.94
2023-04-15T01:32:58.746Z,69.97
2023-04-15T01:33:30.929Z,70.11
2023-04-15T01:34:05.692Z,69.84
2023-04-15T01:34:37.862Z,70.07
2023-04-15T01:35:10.793Z,69.91
2023-04-15T01:35:46.607Z,69.77
2023-04-15T01:36:18.804Z,70.20
2023-04-15T01:36:51.381Z,70.17
2023-04-15T01:37:26.271Z,70.54
2023-04-15T01:38:05.318Z,69.91
2023-04-15T01:38:38.319Z,70.03
2023-04-15T01:39:13.661Z,69.92
2023-04-15T01:39:46.531Z,69.57
2023-04-15T01:40:18.919Z,69.95
2023-04-15T01:40:54.154Z,69.84
2023-04-15T01:41:29.785Z,69.56
2023-04-15T01:42:02.037Z,68.99
2023-04-15T01:42:35.421Z,69.12
2023-04-15T01:43:10.174Z,69.41
2023-04-15T01:43:42.647Z,69.39
2023-04-15T01:44:15.138Z,69.21
2023-04-15T01:44:49.909Z,69.07
2023-04-15T01:45:22.125Z,68.90
2023-04-15T01:45:54.402Z,68.81
2023-04-15T01:46:29.468Z,68.68
2023-04-15T01:47:01.942Z,69.04
2023-04-15T01:47:34.328Z,68.87
2023-04-15T01:48:10.080Z,68.72
2023-04-15T01:48:43.342Z,69.12
2023-04-15T01:49:15.629Z,69.13
2023-04-15T01:49:50.436Z,68.92
2023-04-15T01:50:22.640Z,69.13
2023-04-15T01:50:57.731Z,69.55
2023-04-15T01:51:32.484Z,69.46
2023-04-15T01:52:04.915Z,69.02
2023-04-15T01:52:37.751Z,69.03
2023-04-15T01:53:09.986Z,69.54
2023-04-15T01:53:44.742Z,69.87
2023-04-15T01:54:16.996Z,69.33
2023-04-15T01:54:50.043Z,69.79
2023-04-15T01:55:27.264Z,69.42
2023-04-15T01:56:02.505Z,69.61
2023-04-15T01:56:34.929Z,69.38
2023-04-15T01:57:11.441Z,69.44
2023-04-15T01:57:43.659Z,69.51
2023-04-15T01:58:15.958Z,69.43
2023-04-15T01:58:50.761Z,69.02
2023-04-15T01:59:23.172Z,69.04
2023-04-15T01:59:55.402Z,69.06
2023-04-15T02:00:30.180Z,68.86
2023-04-15T02:01:03.193Z,69.35
2023-04-15T02:01:37.344Z,69.53
2023-04-15T02:02:12.787Z,69.18
2023-04-15T02:02:45.170Z,69.52
2023-04-15T02:03:18.313Z,69.44
2023-04-15T02:03:53.340Z,69.34
2023-04-15T02:04:25.682Z,68.76
2023-04-15T02:04:58.256Z,68.94
2023-04-15T02:05:33.043Z,69.02
2023-04-15T02:06:06.351Z,68.58
2023-04-15T02:06:38.603Z,68.35
2023-04-15T02:07:13.403Z,68.60
2023-04-15T02:07:46.811Z,68.39
2023-04-15T02:08:18.981Z,68.29
2023-04-15T02:08:53.776Z,68.01
2023-04-15T02:09:26.299Z,68.34
2023-04-15T02:09:58.686Z,67.99
2023-04-15T02:10:33.640Z,67.99
2023-04-15T02:11:08.779Z,67.29
2023-04-15T02:11:41.089Z,67.55
2023-04-15T02:12:16.808Z,67.60
2023-04-15T02:12:49.301Z,67.94
2023-04-15T02:13:21.506Z,67.88
2023-04-15T02:13:57.264Z,67.92
2023-04-15T02:14:31.880Z,67.76
2023-04-15T02:15:05.557Z,67.65
2023-04-15T02:15:40.544Z,67.89
2023-04-15T02:16:19.228Z,67.83
2023-04-15T02:16:51.746Z,67.60
2023-04-15T02:17:26.942Z,67.78
2023-04-15T02:18:01.130Z,67.29
2023-04-15T02:18:35.941Z,67.09
2023-04-15T02:19:08.190Z,67.58
2023-04-15T02:19:43.221Z,67.47
2023-04-15T02:20:15.573Z,67.52
2023-04-15T02:20:50.900Z,67.37
2023-04-15T02:21:23.138Z,67.92
2023-04-15T02:21:55.348Z,67.63
2023-04-15T02:22:30.542Z,67.30
2023-04-15T02:23:03.311Z,67.50
2023-04-15T02:23:35.747Z,67.64
2023-04-15T02:24:12.351Z,67.46
2023-04-15T02:24:46.835Z,67.29
2023-04-15T02:25:20.434Z,66.98
2023-04-15T02:25:55.202Z,67.31
2023-04-15T02:26:32.801Z,67.47
2023-04-15T02:27:04.958Z,67.20
2023-04-15T02:27:39.879Z,67.27
2023-04-15T02:28:12.135Z,67.22
2023-04-15T02:28:44.653Z,67.92
2023-04-15T02:29:23.157Z,67.30
2023-04-15T02:29:55.583Z,67.45
2023-04-15T02:30:27.992Z,67.55
2023-04-15T02:31:02.776Z,67.20
2023-04-15T02:31:40.626Z,67.65
2023-04-15T02:32:13.396Z,67.57
2023-04-15T02:32:48.674Z,67.19
2023-04-15T02:33:22.139Z,67.13
2023-04-15T02:33:54.332Z,67.39
2023-04-15T02:34:29.544Z,67.02
2023-04-15T02:35:04.070Z,66.91
2023-04-15T02:35:39.478Z,66.86
2023-04-15T02:36:14.750Z,67.15
2023-04-15T02:36:47.708Z,67.08
2023-04-15T02:37:21.203Z,67.15
2023-04-15T02:37:56.122Z,67.26
2023-04-15T02:38:28.448Z,67.05
2023-04-15T02:39:01.186Z,66.47
2023-04-15T02:39:37.055Z,66.86
2023-04-15T02:40:10.717Z,66.45
2023-04-15T02:40:45.652Z,66.91
2023-04-15T02:41:18.905Z,66.77
2023-04-15T02:41:53.907Z,67.11
2023-04-15T02:42:30.554Z,66.99
2023-04-15T02:43:07.185Z,67.19
2023-04-15T02:43:40.213Z,67.06
2023-04-15T02:44:17.812Z,66.81
2023-04-15T02:44:50.153Z,66.80
2023-04-15T02:45:26.061Z,67.10
2023-04-15T02:46:01.286Z,67.16
2023-04-15T02:46:33.702Z,66.88
2023-04-15T02:47:07.322Z,67.09
2023-04-15T02:47:43.490Z,67.05
2023-04-15T02:48:18.196Z,67.31
2023-04-15T02:48:51.169Z,66.97
2023-04-15T02:49:26.070Z,67.05
2023-04-15T02:50:00.621Z,67.46
2023-04-15T02:50:34.392Z,67.72
2023-04-15T02:51:16.926Z,67.23
2023-04-15T02:51:49.960Z,67.44
2023-04-15T02:52:22.241Z,67.50
2023-04-15T02:52:57.055Z,67.13
2023-04-15T02:53:29.244Z,67.13
2023-04-15T02:54:01.751Z,67.26
2023-04-15T02:54:36.846Z,67.14
2023-04-15T02:55:09.974Z,67.44
2023-04-15T02:55:43.144Z,67.31
2023-04-15T02:56:19.572Z,67.53
2023-04-15T02:56:56.348Z,67.75
2023-04-15T02:57:29.184Z,67.66
2023-04-15T02:58:06.406Z,67.82
2023-04-15T02:58:39.635Z,67.65
2023-04-15T02:59:12.910Z,67.36
2023-04-15T02:59:47.689Z,67.56
2023-04-15T03:00:20.802Z,67.81
2023-04-15T03:00:54.111Z,67.80
2023-04-15T03:01:29.106Z,67.80
2023-04-15T03:02:01.589Z,67.68
2023-04-15T03:02:34.841Z,67.73
2023-04-15T03:03:11.047Z,67.61
2023-04-15T03:03:43.458Z,67.64
2023-04-15T03:04:15.926Z,67.65
2023-04-15T03:04:48.230Z,68.00
2023-04-15T03:05:24.747Z,67.69
2023-04-15T03:05:57.155Z,67.74
2023-04-15T03:06:29.819Z,67.41
2023-04-15T03:07:04.975Z,67.37
2023-04-15T03:07:37.409Z,67.37
2023-04-15T03:08:09.570Z,67.40
2023-04-15T03:08:44.634Z,67.62
2023-04-15T03:09:18.346Z,67.65
2023-04-15T03:09:50.723Z,67.74
2023-04-15T03:10:26.071Z,67.97
2023-04-15T03:11:00.924Z,67.42
2023-04-15T03:11:34.882Z,67.78
2023-04-15T03:12:14.075Z,67.96
2023-04-15T03:12:46.367Z,68.21
2023-04-15T03:13:25.598Z,68.02
2023-04-15T03:13:59.040Z,68.19
2023-04-15T03:14:36.535Z,67.88
2023-04-15T03:15:13.201Z,68.02
2023-04-15T03:15:50.077Z,68.20
2023-04-15T03:16:22.533Z,68.06
2023-04-15T03:16:59.525Z,68.28
2023-04-15T03:17:31.800Z,68.33
2023-04-15T03:18:07.281Z,68.41
2023-04-15T03:18:39.916Z,68.28
2023-04-15T03:19:12.835Z,68.15
2023-04-15T03:19:49.995Z,68.51
2023-04-15T03:20:23.652Z,68.50
2023-04-15T03:20:56.080Z,68.64
2023-04-15T03:21:31.628Z,68.92
2023-04-15T03:22:03.922Z,68.94
2023-04-15T03:22:36.262Z,68.86
2023-04-15T03:23:11.889Z,69.41
2023-04-15T03:23:44.488Z,69.12
2023-04-15T03:24:17.907Z,69.37
2023-04-15T03:24:50.811Z,69.37
2023-04-15T03:25:25.779Z,69.38
2023-04-15T03:25:58.599Z,69.94
2023-04-15T03:26:32.249Z,69.49
2023-04-15T03:27:10.224Z,68.91
2023-04-15T03:27:45.305Z,69.03
2023-04-15T03:28:18.837Z,68.88
2023-04-15T03:28:51.031Z,69.04
2023-04-15T03:29:26.654Z,69.19
2023-04-15T03:29:58.833Z,69.14
2023-04-15T03:30:32.517Z,69.12
2023-04-15T03:31:08.315Z,69.12
2023-04-15T03:31:40.720Z,69.14
2023-04-15T03:32:13.178Z,69.03
2023-04-15T03:32:47.993Z,69.19
2023-04-15T03:33:20.614Z,69.02
2023-04-15T03:33:52.848Z,69.29
2023-04-15T03:34:27.692Z,69.02
2023-04-15T03:34:59.971Z,69.46
2023-04-15T03:35:32.190Z,69.47
2023-04-15T03:36:07.497Z,69.63
2023-04-15T03:36:42.269Z,68.94
2023-04-15T03:37:14.512Z,68.95
2023-04-15T03:37:47.164Z,69.08
2023-04-15T03:38:21.987Z,69.12
2023-04-15T03:38:54.255Z,69.00
2023-04-15T03:39:26.421Z,68.64
2023-04-15T03:40:01.233Z,68.74
2023-04-15T03:40:33.464Z,69.03
2023-04-15T03:41:06.225Z,69.02
2023-04-15T03:41:41.247Z,68.78
2023-04-15T03:42:13.435Z,68.57
2023-04-15T03:42:48.310Z,68.53
2023-04-15T03:43:23.226Z,68.81
2023-04-15T03:43:55.392Z,68.96
2023-04-15T03:44:27.961Z,69.13
2023-04-15T03:45:03.703Z,69.39
2023-04-15T03:45:35.936Z,69.47
2023-04-15T03:46:08.216Z,69.24
2023-04-15T03:46:43.132Z,69.28
2023-04-15T03:47:15.394Z,69.20
2023-04-15T03:47:50.365Z,68.97
2023-04-15T03:48:22.784Z,68.80
2023-04-15T03:48:55.055Z,68.77
2023-04-15T03:49:29.825Z,68.63
2023-04-15T03:50:01.989Z,68.87
2023-04-15T03:50:34.165Z,68.63
2023-04-15T03:51:09.063Z,69.08
2023-04-15T03:51:41.475Z,68.63
2023-04-15T03:52:13.683Z,68.55
2023-04-15T03:52:50.089Z,68.85
2023-04-15T03:53:23.600Z,68.48
2023-04-15T03:53:56.265Z,68.17
2023-04-15T03:54:31.202Z,68.41
2023-04-15T03:55:03.510Z,68.66
2023-04-15T03:55:35.818Z,68.80
2023-04-15T03:56:08.359Z,69.14
2023-04-15T03:56:43.110Z,69.08
2023-04-15T03:57:15.424Z,69.60
2023-04-15T03:57:50.172Z,69.67
2023-04-15T03:58:25.010Z,69.75
2023-04-15T03:58:57.241Z,69.58
2023-04-15T03:59:29.426Z,69.28
2023-04-15T04:00:04.372Z,69.54
2023-04-15T04:00:44.081Z,69.30
2023-04-15T04:01:16.714Z,69.54
2023-04-15T04:01:52.254Z,69.89
2023-04-15T04:02:24.716Z,70.19
2023-04-15T04:02:57.449Z,70.11
2023-04-15T04:03:32.909Z,70.33
2023-04-15T04:04:05.316Z,70.25
2023-04-15T04:04:37.718Z,69.86
2023-04-15T04:05:12.634Z,70.19
2023-04-15T04:05:45.037Z,69.76
2023-04-15T04:06:17.330Z,69.78
2023-04-15T04:06:52.097Z,69.67
2023-04-15T04:07:24.784Z,69.70
2023-04-15T04:07:57.192Z,69.56
2023-04-15T04:08:32.086Z,69.42
2023-04-15T04:09:04.477Z,69.49
2023-04-15T04:09:38.326Z,70.00
2023-04-15T04:10:13.794Z,69.81
2023-04-15T04:10:46.195Z,69.36
2023-04-15T04:11:18.450Z,69.61
2023-04-15T04:11:53.231Z,69.92
2023-04-15T04:12:25.568Z,70.16
2023-04-15T04:13:00.323Z,69.74
2023-04-15T04:13:35.139Z,69.83
2023-04-15T04:14:07.427Z,69.85
2023-04-15T04:14:39.608Z,70.27
2023-04-15T04:15:12.673Z,69.82
2023-04-15T04:15:47.630Z,69.75
2023-04-15T04:16:19.954Z,69.46
2023-04-15T04:16:52.835Z,69.38
2023-04-15T04:17:27.673Z,69.68
2023-04-15T04:17:59.991Z,69.80
2023-04-15T04:18:32.305Z,69.61
2023-04-15T04:19:07.450Z,69.59
2023-04-15T04:19:39.878Z,69.80
2023-04-15T04:20:12.569Z,69.47
2023-04-15T04:20:47.476Z,69.74
2023-04-15T04:21:21.236Z,69.41
2023-04-15T04:21:53.431Z,69.55
2023-04-15T04:22:26.432Z,69.21
2023-04-15T04:23:01.250Z,69.33
2023-04-15T04:23:33.607Z,68.75
2023-04-15T04:24:06.040Z,68.89
2023-04-15T04:24:41.005Z,69.41
2023-04-15T04:25:13.396Z,69.51
2023-04-15T04:25:45.577Z,68.79
2023-04-15T04:26:20.356Z,68.77
2023-04-15T04:26:52.611Z,69.01
2023-04-15T04:27:27.374Z,69.04
2023-04-15T04:28:02.267Z,69.89
2023-04-15T04:28:35.439Z,70.10
2023-04-15T04:29:10.229Z,69.60
2023-04-15T04:29:42.728Z,69.87
2023-04-15T04:30:14.921Z,70.40
2023-04-15T04:30:49.916Z,70.07
2023-04-15T04:31:22.210Z,69.82
2023-04-15T04:31:54.464Z,69.70
2023-04-15T04:32:26.779Z,70.05
2023-04-15T04:33:01.655Z,70.09
2023-04-15T04:33:34.032Z,70.08
2023-04-15T04:34:06.343Z,70.10
2023-04-15T04:34:41.710Z,70.00
2023-04-15T04:35:13.956Z,69.89
2023-04-15T04:35:46.527Z,69.51
2023-04-15T04:36:21.567Z,69.87
2023-04-15T04:36:53.776Z,70.27
2023-04-15T04:37:26.104Z,70.77
2023-04-15T04:38:00.878Z,70.55
2023-04-15T04:38:33.375Z,70.65
2023-04-15T04:39:05.597Z,70.39
2023-04-15T04:39:40.408Z,70.14
2023-04-15T04:40:14.022Z,70.41
2023-04-15T04:40:46.201Z,70.95
2023-04-15T04:41:21.072Z,70.58
2023-04-15T04:41:53.311Z,69.97
2023-04-15T04:42:25.640Z,69.71
2023-04-15T04:43:00.487Z,69.48
2023-04-15T04:43:35.349Z,69.66
2023-04-15T04:44:07.850Z,69.52
2023-04-15T04:44:42.873Z,69.51
2023-04-15T04:45:15.302Z,69.60
2023-04-15T04:45:47.579Z,69.47
2023-04-15T04:46:22.457Z,69.89
2023-04-15T04:46:55.004Z,69.71
2023-04-15T04:47:27.362Z,69.78
2023-04-15T04:47:59.932Z,69.55
2023-04-15T04:48:34.734Z,69.65
2023-04-15T04:49:07.206Z,69.98
2023-04-15T04:49:39.574Z,69.67
2023-04-15T04:50:14.516Z,69.91
2023-04-15T04:50:47.323Z,69.73
2023-04-15T04:51:19.635Z,69.96
2023-04-15T04:51:54.967Z,70.20
2023-04-15T04:52:27.210Z,70.70
2023-04-15T04:52:59.466Z,70.37
2023-04-15T04:53:34.366Z,69.73
2023-04-15T04:54:06.729Z,69.92
2023-04-15T04:54:38.998Z,70.33
2023-04-15T04:55:13.787Z,70.03
2023-04-15T04:55:46.051Z,69.86
2023-04-15T04:56:18.205Z,69.80
2023-04-15T04:56:53.037Z,70.24
2023-04-15T04:57:25.316Z,70.30
2023-04-15T04:58:00.162Z,70.44
2023-04-15T04:58:35.058Z,71.06
2023-04-15T04:59:07.930Z,69.80
2023-04-15T04:59:43.009Z,69.75
2023-04-15T05:00:15.573Z,69.48
2023-04-15T05:00:50.375Z,69.20
2023-04-15T05:01:22.640Z,69.06
2023-04-15T05:01:54.945Z,69.00
2023-04-15T05:02:29.992Z,69.75
2023-04-15T05:03:02.523Z,69.56
2023-04-15T05:03:34.900Z,69.37
2023-04-15T05:04:10.321Z,69.49
2023-04-15T05:04:42.609Z,69.44
2023-04-15T05:05:15.228Z,69.77
2023-04-15T05:05:50.125Z,69.98
2023-04-15T05:06:22.363Z,69.81
2023-04-15T05:06:54.547Z,70.38
2023-04-15T05:07:29.319Z,70.40
2023-04-15T05:08:01.626Z,70.12
2023-04-15T05:08:33.823Z,70.38
2023-04-15T05:09:08.616Z,70.68
2023-04-15T05:09:41.122Z,70.57
2023-04-15T05:10:14.941Z,70.70
2023-04-15T05:10:49.709Z,70.10
2023-04-15T05:11:21.905Z,69.99
2023-04-15T05:11:54.819Z,69.65
2023-04-15T05:12:29.727Z,69.00
2023-04-15T05:13:02.077Z,69.29
2023-04-15T05:13:38.911Z,68.69
2023-04-15T05:14:13.670Z,69.24
2023-04-15T05:14:46.949Z,69.53
2023-04-15T05:15:19.412Z,69.71
2023-04-15T05:15:54.194Z,69.36
2023-04-15T05:16:26.400Z,69.52
2023-04-15T05:16:58.606Z,69.34
2023-04-15T05:17:35.541Z,69.50
2023-04-15T05:18:07.931Z,69.50
2023-04-15T05:18:40.229Z,70.38
2023-04-15T05:19:14.988Z,70.55
2023-04-15T05:19:47.154Z,70.25
2023-04-15T05:20:19.366Z,69.98
2023-04-15T05:20:54.262Z,69.59
2023-04-15T05:21:27.702Z,69.47
2023-04-15T05:22:00.459Z,69.24
2023-04-15T05:22:35.275Z,69.29
2023-04-15T05:23:08.046Z,68.58
2023-04-15T05:23:41.153Z,68.76
2023-04-15T05:24:15.926Z,68.21
2023-04-15T05:24:48.159Z,68.37
2023-04-15T05:25:20.405Z,68.76
2023-04-15T05:25:52.560Z,68.60
2023-04-15T05:26:27.703Z,68.60
2023-04-15T05:27:01.573Z,68.35
2023-04-15T05:27:33.832Z,68.32
2023-04-15T05:28:09.087Z,68.03
2023-04-15T05:28:44.158Z,68.52
2023-04-15T05:29:16.469Z,68.32
2023-04-15T05:29:51.826Z,67.96
2023-04-15T05:30:24.026Z,68.76
2023-04-15T05:30:56.453Z,68.76
2023-04-15T05:31:31.574Z,68.52
2023-04-15T05:32:03.921Z,68.43
2023-04-15T05:32:36.418Z,68.20
2023-04-15T05:33:11.983Z,68.08
2023-04-15T05:33:44.523Z,68.32
2023-04-15T05:34:17.664Z,68.07
2023-04-15T05:34:52.561Z,69.09
2023-04-15T05:35:24.717Z,68.64
2023-04-15T05:35:56.910Z,69.35
2023-04-15T05:36:32.290Z,69.29
2023-04-15T05:37:04.469Z,68.75
2023-04-15T05:37:36.843Z,68.68
2023-04-15T05:38:11.598Z,68.59
2023-04-15T05:38:43.774Z,69.13
2023-04-15T05:39:16.387Z,69.04
2023-04-15T05:39:51.246Z,68.60
2023-04-15T05:40:23.681Z,68.01
2023-04-15T05:40:56.139Z,68.42
2023-04-15T05:41:30.920Z,68.14
2023-04-15T05:42:03.689Z,67.95
2023-04-15T05:42:36.019Z,67.32
2023-04-15T05:43:10.984Z,67.67
2023-04-15T05:43:45.955Z,67.99
2023-04-15T05:44:18.155Z,68.05
2023-04-15T05:44:52.915Z,67.64
2023-04-15T05:45:25.078Z,67.30
2023-04-15T05:46:00.043Z,67.74
2023-04-15T05:46:32.491Z,67.73
2023-04-15T05:47:05.159Z,67.89
2023-04-15T05:47:40.264Z,68.42
2023-04-15T05:48:12.894Z,68.23
2023-04-15T05:48:45.179Z,68.44
2023-04-15T05:49:19.940Z,68.46
2023-04-15T05:49:52.229Z,68.35
2023-04-15T05:50:24.427Z,68.00
2023-04-15T05:50:59.262Z,67.88
2023-04-15T05:51:31.620Z,67.98
2023-04-15T05:52:03.987Z,67.52
2023-04-15T05:52:38.858Z,67.54
2023-04-15T05:53:11.885Z,67.76
2023-04-15T05:53:44.150Z,67.70
2023-04-15T05:54:20.307Z,68.12
2023-04-15T05:54:52.627Z,67.90
2023-04-15T05:55:24.784Z,67.69
2023-04-15T05:55:59.674Z,68.25
2023-04-15T05:56:31.999Z,67.78
2023-04-15T05:57:07.619Z,67.83
2023-04-15T05:57:39.831Z,67.71
2023-04-15T05:58:12.759Z,68.01
2023-04-15T05:58:51.869Z,67.52
2023-04-15T05:59:25.478Z,68.00
2023-04-15T05:59:58.076Z,67.68
2023-04-15T06:00:33.115Z,67.83
2023-04-15T06:01:05.824Z,67.52
2023-04-15T06:01:38.577Z,67.56
2023-04-15T06:02:13.611Z,66.87
2023-04-15T06:02:46.132Z,66.90
2023-04-15T06:03:18.570Z,67.02
2023-04-15T06:03:53.675Z,66.79
2023-04-15T06:04:26.077Z,66.91
2023-04-15T06:04:58.622Z,67.38
2023-04-15T06:05:33.570Z,66.95
2023-04-15T06:06:05.823Z,66.97
2023-04-15T06:06:41.257Z,66.89
2023-04-15T06:07:13.514Z,67.30
2023-04-15T06:07:48.745Z,67.25
2023-04-15T06:08:21.715Z,67.23
2023-04-15T06:08:55.939Z,67.61
2023-04-15T06:09:31.827Z,67.25
2023-04-15T06:10:04.346Z,67.33
2023-04-15T06:10:37.134Z,66.95
2023-04-15T06:11:11.935Z,67.00
2023-04-15T06:11:44.087Z,67.07
2023-04-15T06:12:17.248Z,67.10
2023-04-15T06:12:52.425Z,66.60
2023-04-15T06:13:24.660Z,66.49
2023-04-15T06:13:59.496Z,66.59
2023-04-15T06:14:34.397Z,66.53
2023-04-15T06:15:10.132Z,66.17
2023-04-15T06:15:42.465Z,66.15
2023-04-15T06:16:17.643Z,66.24
2023-04-15T06:16:49.907Z,66.31
2023-04-15T06:17:22.324Z,66.95
2023-04-15T06:17:57.165Z,67.04
2023-04-15T06:18:29.459Z,66.84
2023-04-15T06:19:01.769Z,67.30
2023-04-15T06:19:36.939Z,67.37
2023-04-15T06:20:10.670Z,66.98
2023-04-15T06:20:43.076Z,67.29
2023-04-15T06:21:18.197Z,66.97
2023-04-15T06:21:50.583Z,66.90
2023-04-15T06:22:23.237Z,67.05
2023-04-15T06:22:58.024Z,67.01
2023-04-15T06:23:30.575Z,66.93
2023-04-15T06:24:03.561Z,66.88
2023-04-15T06:24:38.565Z,66.92
2023-04-15T06:25:11.168Z,66.52
2023-04-15T06:25:43.365Z,66.89
2023-04-15T06:26:18.177Z,66.05
2023-04-15T06:26:50.780Z,66.49
2023-04-15T06:27:23.358Z,66.45
2023-04-15T06:27:58.192Z,66.26
2023-04-15T06:28:30.746Z,66.42
2023-04-15T06:29:05.536Z,66.14
2023-04-15T06:29:40.437Z,66.44
2023-04-15T06:30:13.048Z,66.56
2023-04-15T06:30:45.389Z,66.33
2023-04-15T06:31:20.247Z,66.24
2023-04-15T06:31:52.670Z,66.08
2023-04-15T06:32:25.016Z,66.25
2023-04-15T06:33:00.129Z,66.32
2023-04-15T06:33:32.479Z,66.73
2023-04-15T06:34:07.503Z,66.88
2023-04-15T06:34:39.723Z,67.07
2023-04-15T06:35:11.992Z,66.70
2023-04-15T06:35:47.586Z,67.11
2023-04-15T06:36:19.856Z,66.95
2023-04-15T06:36:52.073Z,67.16
2023-04-15T06:37:26.906Z,66.72
2023-04-15T06:37:59.227Z,66.79
2023-04-15T06:38:31.616Z,66.43
2023-04-15T06:39:06.663Z,66.49
2023-04-15T06:39:38.842Z,66.44
2023-04-15T06:40:11.839Z,66.31
2023-04-15T06:40:46.662Z,65.58
2023-04-15T06:41:18.854Z,65.38
2023-04-15T06:41:51.411Z,66.09
2023-04-15T06:42:29.407Z,66.26
2023-04-15T06:43:01.989Z,66.16
2023-04-15T06:43:36.809Z,66.04
2023-04-15T06:44:11.679Z,65.68
2023-04-15T06:44:46.603Z,65.64
2023-04-15T06:45:18.990Z,65.57
2023-04-15T06:45:53.939Z,65.65
2023-04-15T06:46:26.245Z,65.91
2023-04-15T06:46:58.563Z,66.32
2023-04-15T06:47:33.446Z,66.54
2023-04-15T06:48:06.623Z,66.89
2023-04-15T06:48:41.408Z,66.85
2023-04-15T06:49:13.663Z,66.69
2023-04-15T06:49:45.893Z,66.18
2023-04-15T06:50:20.970Z,65.86
2023-04-15T06:50:53.228Z,65.50
2023-04-15T06:51:26.793Z,65.52
2023-04-15T06:52:01.843Z,66.31
2023-04-15T06:52:34.023Z,66.03
2023-04-15T06:53:06.840Z,65.59
2023-04-15T06:53:44.069Z,65.73
2023-04-15T06:54:16.465Z,65.81
2023-04-15T06:54:48.682Z,65.34
2023-04-15T06:55:23.692Z,65.41
2023-04-15T06:55:56.309Z,65.25
2023-04-15T06:56:28.690Z,65.43
2023-04-15T06:57:03.555Z,65.19
2023-04-15T06:57:35.914Z,65.30
2023-04-15T06:58:11.038Z,64.80
2023-04-15T06:58:43.432Z,64.88
2023-04-15T06:59:20.872Z,64.81
2023-04-15T06:59:54.787Z,64.59
2023-04-15T07:00:26.989Z,64.35
2023-04-15T07:01:02.116Z,64.36
2023-04-15T07:01:34.569Z,64.60
2023-04-15T07:02:09.413Z,64.24
2023-04-15T07:02:44.552Z,64.87
2023-04-15T07:03:17.064Z,64.78
2023-04-15T07:03:51.930Z,64.81
2023-04-15T07:04:24.692Z,64.77
2023-04-15T07:04:57.188Z,64.66
2023-04-15T07:05:32.599Z,64.34
2023-04-15T07:06:07.056Z,64.50
2023-04-15T07:06:42.361Z,64.35
2023-04-15T07:07:15.509Z,64.81
2023-04-15T07:07:47.702Z,65.53
2023-04-15T07:08:22.981Z,65.06
2023-04-15T07:08:55.916Z,64.67
2023-04-15T07:09:30.674Z,64.88
2023-04-15T07:10:03.396Z,64.99
2023-04-15T07:10:35.678Z,64.96
2023-04-15T07:11:10.525Z,64.67
2023-04-15T07:11:42.830Z,63.76
2023-04-15T07:12:14.990Z,64.31
2023-04-15T07:12:51.073Z,64.50
2023-04-15T07:13:23.245Z,65.05
2023-04-15T07:13:55.414Z,64.80
2023-04-15T07:14:32.738Z,64.84